createdAt,value
2019-01-30T00:04:11.064Z,9.70
2019-01-30T00:06:39.668Z,9.60
2019-01-30T00:09:27.623Z,9.70
2019-01-30T00:11:56.236Z,9.70
2019-01-30T00:14:44.424Z,9.60
2019-01-30T00:17:32.336Z,9.60
2019-01-30T00:20:00.955Z,9.60
2019-01-30T00:22:48.865Z,9.60
2019-01-30T00:25:17.472Z,9.50
2019-01-30T00:27:46.170Z,9.50
2019-01-30T00:30:15.453Z,9.50
2019-01-30T00:33:03.373Z,9.50
2019-01-30T00:40:47.896Z,9.70
2019-01-30T00:43:16.772Z,9.50
2019-01-30T00:45:45.619Z,9.50
2019-01-30T00:48:33.532Z,9.50
2019-01-30T00:51:02.144Z,9.50
2019-01-30T00:53:30.709Z,9.40
2019-01-30T00:55:59.295Z,9.40
2019-01-30T00:58:28.336Z,9.40
2019-01-30T01:00:58.332Z,9.40
2019-01-30T01:03:27.327Z,9.50
2019-01-30T01:05:56.026Z,9.50
2019-01-30T01:08:24.689Z,9.40
2019-01-30T01:10:53.289Z,9.40
2019-01-30T01:13:22.215Z,9.30
2019-01-30T01:15:50.820Z,9.30
2019-01-30T01:18:21.555Z,9.30
2019-01-30T01:21:09.169Z,9.40
2019-01-30T01:23:38.015Z,9.30
2019-01-30T01:26:25.944Z,9.30
2019-01-30T01:28:54.572Z,9.30
2019-01-30T01:31:23.201Z,9.30
2019-01-30T01:34:11.133Z,9.30
2019-01-30T01:36:39.724Z,9.30
2019-01-30T01:39:09.133Z,9.30
2019-01-30T01:41:37.993Z,9.30
2019-01-30T01:44:25.888Z,9.20
2019-01-30T01:46:54.556Z,9.30
2019-01-30T01:49:23.411Z,9.30
2019-01-30T01:51:52.017Z,9.20
2019-01-30T01:54:20.862Z,9.20
2019-01-30T01:57:09.328Z,9.20
2019-01-30T01:59:38.208Z,9.20
2019-01-30T02:02:06.800Z,9.20
2019-01-30T02:04:35.388Z,9.20
2019-01-30T02:07:04.013Z,9.20
2019-01-30T02:09:45.335Z,9.10
2019-01-30T02:12:26.632Z,9.20
2019-01-30T02:14:55.248Z,9.10
2019-01-30T02:17:23.819Z,9.10
2019-01-30T02:19:52.508Z,9.10
2019-01-30T02:22:21.336Z,9.10
2019-01-30T02:24:50.207Z,9.10
2019-01-30T02:27:18.798Z,9.10
2019-01-30T02:29:47.369Z,9.10
2019-01-30T02:32:15.964Z,9.10
2019-01-30T02:35:03.965Z,9.10
2019-01-30T02:37:51.892Z,9.10
2019-01-30T02:40:39.814Z,9.00
2019-01-30T02:43:08.408Z,9.00
2019-01-30T02:45:56.325Z,9.00
2019-01-30T02:48:44.289Z,9.00
2019-01-30T02:51:12.886Z,9.00
2019-01-30T02:53:41.458Z,9.00
2019-01-30T02:56:10.066Z,9.00
2019-01-30T02:58:57.981Z,9.00
2019-01-30T03:01:26.554Z,9.10
2019-01-30T03:03:55.122Z,9.10
2019-01-30T03:06:23.693Z,9.10
2019-01-30T03:08:52.282Z,9.10
2019-01-30T03:11:21.392Z,9.00
2019-01-30T03:13:49.964Z,9.00
2019-01-30T03:19:12.014Z,9.00
2019-01-30T03:21:40.868Z,9.00
2019-01-30T03:24:29.046Z,8.90
2019-01-30T03:26:57.634Z,8.90
2019-01-30T03:32:14.488Z,8.90
2019-01-30T03:34:43.120Z,9.00
2019-01-30T03:37:11.696Z,9.00
2019-01-30T03:39:40.288Z,9.00
2019-01-30T03:42:08.895Z,9.00
2019-01-30T03:44:56.812Z,9.00
2019-01-30T03:47:44.717Z,9.00
2019-01-30T03:50:13.636Z,8.90
2019-01-30T03:53:01.548Z,8.90
2019-01-30T03:55:30.160Z,9.00
2019-01-30T03:58:18.068Z,9.00
2019-01-30T04:01:06.249Z,8.90
2019-01-30T04:03:34.835Z,8.90
2019-01-30T04:06:03.636Z,8.90
2019-01-30T04:08:51.816Z,8.90
2019-01-30T04:11:20.405Z,8.90
2019-01-30T04:13:48.996Z,8.90
2019-01-30T04:16:17.844Z,8.90
2019-01-30T04:18:46.657Z,8.90
2019-01-30T04:21:34.853Z,8.90
2019-01-30T04:24:03.428Z,8.80
2019-01-30T04:26:51.361Z,8.80
2019-01-30T04:29:19.959Z,8.80
2019-01-30T04:31:48.541Z,8.80
2019-01-30T04:34:36.451Z,8.90
2019-01-30T04:37:24.594Z,8.90
2019-01-30T04:39:53.447Z,8.90
2019-01-30T04:42:22.264Z,8.80
2019-01-30T04:45:11.295Z,8.80
2019-01-30T04:47:59.183Z,8.80
2019-01-30T04:50:47.397Z,8.80
2019-01-30T04:53:35.326Z,8.80
2019-01-30T04:56:03.905Z,8.70
2019-01-30T04:58:32.473Z,8.70
2019-01-30T05:01:01.045Z,8.70
2019-01-30T05:03:48.967Z,8.80
2019-01-30T05:06:36.873Z,8.80
2019-01-30T05:09:08.841Z,8.80
2019-01-30T05:11:37.475Z,8.80
2019-01-30T05:14:06.089Z,8.80
2019-01-30T05:16:34.944Z,8.80
2019-01-30T05:19:03.536Z,8.80
2019-01-30T05:21:32.129Z,8.80
2019-01-30T05:24:00.715Z,8.80
2019-01-30T05:26:29.383Z,8.80
2019-01-30T05:29:17.280Z,8.80
2019-01-30T05:31:45.848Z,8.80
2019-01-30T05:34:14.681Z,8.80
2019-01-30T05:36:43.619Z,8.80
2019-01-30T05:39:31.536Z,8.80
2019-01-30T05:42:19.487Z,8.80
2019-01-30T05:44:48.063Z,8.70
2019-01-30T05:47:16.655Z,8.80
2019-01-30T05:49:45.511Z,8.80
2019-01-30T05:52:14.343Z,8.70
2019-01-30T05:54:42.914Z,8.80
2019-01-30T05:57:30.841Z,8.70
2019-01-30T05:59:59.492Z,8.70
2019-01-30T06:02:28.160Z,8.70
2019-01-30T06:04:57.019Z,8.70
2019-01-30T06:07:25.573Z,8.70
2019-01-30T06:09:54.165Z,8.70
2019-01-30T06:12:22.767Z,8.80
2019-01-30T06:15:10.922Z,8.70
2019-01-30T06:17:58.855Z,8.70
2019-01-30T06:20:46.759Z,8.70
2019-01-30T06:23:34.968Z,8.70
2019-01-30T06:26:23.059Z,8.70
2019-01-30T06:28:51.738Z,8.70
2019-01-30T06:31:39.660Z,8.70
2019-01-30T06:34:27.597Z,8.70
2019-01-30T06:37:18.163Z,8.70
2019-01-30T06:40:06.570Z,8.70
2019-01-30T06:42:54.495Z,8.70
2019-01-30T06:45:23.367Z,8.70
2019-01-30T06:48:11.299Z,8.70
2019-01-30T06:50:59.216Z,8.70
2019-01-30T06:53:47.136Z,8.70
2019-01-30T06:56:16.594Z,8.70
2019-01-30T06:58:45.199Z,8.70
2019-01-30T07:01:14.332Z,8.70
2019-01-30T07:03:42.972Z,8.70
2019-01-30T07:06:30.886Z,8.60
2019-01-30T07:08:59.505Z,8.70
2019-01-30T07:11:38.452Z,8.70
2019-01-30T07:14:26.388Z,8.60
2019-01-30T07:16:54.959Z,8.70
2019-01-30T07:19:42.925Z,8.70
2019-01-30T07:22:30.854Z,8.70
2019-01-30T07:24:59.503Z,8.70
2019-01-30T07:27:47.437Z,8.70
2019-01-30T07:30:35.827Z,8.70
2019-01-30T07:33:23.751Z,8.70
2019-01-30T07:36:11.776Z,8.70
2019-01-30T07:38:59.714Z,8.70
2019-01-30T07:41:47.650Z,8.70
2019-01-30T07:44:35.572Z,8.70
2019-01-30T07:47:23.509Z,8.70
2019-01-30T07:49:52.108Z,8.70
2019-01-30T07:52:40.060Z,8.80
2019-01-30T07:55:28.787Z,8.80
2019-01-30T07:58:16.696Z,8.80
2019-01-30T08:01:04.600Z,8.80
2019-01-30T08:03:52.515Z,8.70
2019-01-30T08:06:40.655Z,8.70
2019-01-30T08:09:28.598Z,8.80
2019-01-30T08:12:08.931Z,8.80
2019-01-30T08:14:50.233Z,8.80
2019-01-30T08:17:31.287Z,8.80
2019-01-30T08:20:12.021Z,8.80
2019-01-30T08:22:53.422Z,8.90
2019-01-30T08:25:23.122Z,8.80
2019-01-30T08:27:53.562Z,8.90
2019-01-30T08:30:45.899Z,8.90
2019-01-30T08:33:33.880Z,8.90
2019-01-30T08:36:21.798Z,8.90
2019-01-30T08:39:09.689Z,8.90
2019-01-30T08:41:57.617Z,8.90
2019-01-30T08:44:47.101Z,8.90
2019-01-30T08:47:35.428Z,8.90
2019-01-30T08:50:04.415Z,9.00
2019-01-30T08:52:52.406Z,9.10
2019-01-30T08:55:40.319Z,9.10
2019-01-30T08:58:28.343Z,9.20
2019-01-30T09:00:56.909Z,9.30
2019-01-30T09:03:25.444Z,9.30
2019-01-30T09:06:13.360Z,9.40
2019-01-30T09:09:01.277Z,9.50
2019-01-30T09:11:29.857Z,9.50
2019-01-30T09:14:11.456Z,9.50
2019-01-30T09:16:51.881Z,9.60
2019-01-30T09:19:20.474Z,9.70
2019-01-30T09:21:49.020Z,9.80
2019-01-30T09:24:17.627Z,10.00
2019-01-30T09:26:46.485Z,10.10
2019-01-30T09:29:34.419Z,10.30
2019-01-30T09:32:22.325Z,10.40
2019-01-30T09:34:50.933Z,10.70
2019-01-30T09:37:19.479Z,10.90
2019-01-30T09:40:07.585Z,11.00
2019-01-30T09:42:36.168Z,11.10
2019-01-30T09:45:24.079Z,11.20
2019-01-30T09:47:52.639Z,11.30
2019-01-30T09:50:40.817Z,11.40
2019-01-30T09:53:09.382Z,11.50
2019-01-30T09:55:38.204Z,11.60
2019-01-30T09:58:06.799Z,11.60
2019-01-30T10:00:36.331Z,11.80
2019-01-30T10:03:24.264Z,11.90
2019-01-30T10:06:12.424Z,12.10
2019-01-30T10:09:00.343Z,12.10
2019-01-30T10:11:28.928Z,12.10
2019-01-30T10:14:10.168Z,12.10
2019-01-30T10:16:39.427Z,12.00
2019-01-30T10:19:08.000Z,12.00
2019-01-30T10:21:55.936Z,11.90
2019-01-30T10:24:24.507Z,11.90
2019-01-30T10:27:12.444Z,11.90
2019-01-30T10:29:41.031Z,11.90
2019-01-30T10:32:09.625Z,11.80
2019-01-30T10:34:38.212Z,11.80
2019-01-30T10:37:06.802Z,11.80
2019-01-30T10:39:35.391Z,11.80
2019-01-30T10:42:03.996Z,11.90
2019-01-30T10:44:52.140Z,11.80
2019-01-30T10:47:40.318Z,11.90
2019-01-30T10:50:28.500Z,12.00
2019-01-30T10:52:57.089Z,12.00
2019-01-30T10:55:44.995Z,12.00
2019-01-30T10:58:16.056Z,12.10
2019-01-30T11:01:04.296Z,12.10
2019-01-30T11:03:57.435Z,12.10
2019-01-30T11:06:42.075Z,12.20
2019-01-30T11:09:30.017Z,12.10
2019-01-30T11:12:10.476Z,12.10
2019-01-30T11:14:41.037Z,12.10
2019-01-30T11:17:28.668Z,12.20
2019-01-30T11:19:57.265Z,12.30
2019-01-30T11:22:45.201Z,12.40
2019-01-30T11:25:34.849Z,12.60
2019-01-30T11:28:22.786Z,12.80
2019-01-30T11:30:51.424Z,13.20
2019-01-30T11:33:19.994Z,13.50
2019-01-30T11:36:08.050Z,14.00
2019-01-30T11:38:56.228Z,14.20
2019-01-30T11:41:24.840Z,14.90
2019-01-30T11:43:53.391Z,15.60
2019-01-30T11:46:41.592Z,15.80
2019-01-30T11:49:10.180Z,16.00
2019-01-30T11:51:38.736Z,16.40
2019-01-30T11:54:07.320Z,16.80
2019-01-30T11:56:36.023Z,17.30
2019-01-30T11:59:24.017Z,18.10
2019-01-30T12:01:52.608Z,19.20
2019-01-30T12:04:40.535Z,19.80
2019-01-30T12:07:28.462Z,20.40
2019-01-30T12:09:57.033Z,21.90
2019-01-30T12:12:25.631Z,23.60
2019-01-30T12:14:54.478Z,24.20
2019-01-30T12:17:42.416Z,23.90
2019-01-30T12:20:11.519Z,24.10
2019-01-30T12:22:59.713Z,23.80
2019-01-30T12:25:47.723Z,22.90
2019-01-30T12:28:35.647Z,21.60
2019-01-30T12:31:04.490Z,20.50
2019-01-30T12:33:33.073Z,19.40
2019-01-30T12:36:01.972Z,18.70
2019-01-30T12:38:30.849Z,18.30
2019-01-30T12:40:59.659Z,17.90
2019-01-30T12:43:28.243Z,17.40
2019-01-30T12:45:56.841Z,17.00
2019-01-30T12:48:44.736Z,16.60
2019-01-30T12:51:13.298Z,16.30
2019-01-30T12:53:41.872Z,16.20
2019-01-30T12:56:29.812Z,15.90
2019-01-30T12:58:58.599Z,15.70
2019-01-30T13:01:46.764Z,15.60
2019-01-30T13:04:38.803Z,15.50
2019-01-30T13:07:24.331Z,15.40
2019-01-30T13:09:52.935Z,15.20
2019-01-30T13:12:21.515Z,15.00
2019-01-30T13:14:50.115Z,14.80
2019-01-30T13:17:18.695Z,14.60
2019-01-30T13:20:08.236Z,14.40
2019-01-30T13:22:37.067Z,14.30
2019-01-30T13:25:06.195Z,14.10
2019-01-30T13:27:35.298Z,13.90
2019-01-30T13:30:05.312Z,13.80
2019-01-30T13:32:33.897Z,13.70
2019-01-30T13:35:02.488Z,13.50
2019-01-30T13:37:31.048Z,13.40
2019-01-30T13:39:59.611Z,13.30
2019-01-30T13:42:28.284Z,13.30
2019-01-30T13:44:57.120Z,13.20
2019-01-30T13:47:25.684Z,13.20
2019-01-30T13:49:54.272Z,13.20
2019-01-30T13:52:22.877Z,13.10
2019-01-30T13:54:51.496Z,13.10
2019-01-30T13:57:20.091Z,13.10
2019-01-30T13:59:48.899Z,12.90
2019-01-30T14:02:17.490Z,12.90
2019-01-30T14:04:47.424Z,12.80
2019-01-30T14:07:16.121Z,12.80
2019-01-30T14:09:44.767Z,12.70
2019-01-30T14:12:13.340Z,12.70
2019-01-30T14:14:41.947Z,12.70
2019-01-30T14:17:10.544Z,12.60
2019-01-30T14:19:39.125Z,12.60
2019-01-30T14:22:07.783Z,12.50
2019-01-30T14:24:36.355Z,12.40
2019-01-30T14:27:04.919Z,12.40
2019-01-30T14:29:33.491Z,12.30
2019-01-30T14:32:02.334Z,12.30
2019-01-30T14:34:30.995Z,12.30
2019-01-30T14:36:59.607Z,12.20
2019-01-30T14:39:28.173Z,12.20
2019-01-30T14:41:56.762Z,12.20
2019-01-30T14:44:25.606Z,12.20
2019-01-30T14:46:54.180Z,12.20
2019-01-30T14:49:23.357Z,12.00
2019-01-30T14:51:51.927Z,12.00
2019-01-30T14:54:20.520Z,12.00
2019-01-30T14:56:49.117Z,12.00
2019-01-30T14:59:17.764Z,11.90
2019-01-30T15:01:46.456Z,11.90
2019-01-30T15:04:15.149Z,11.90
2019-01-30T15:06:43.782Z,11.90
2019-01-30T15:09:12.471Z,11.90
2019-01-30T15:11:41.068Z,11.90
2019-01-30T15:14:09.899Z,11.90
2019-01-30T15:16:38.495Z,11.80
2019-01-30T15:19:07.096Z,11.80
2019-01-30T15:21:35.907Z,11.80
2019-01-30T15:24:04.672Z,11.80
2019-01-30T15:26:33.260Z,11.70
2019-01-30T15:29:01.815Z,11.70
2019-01-30T15:31:30.655Z,11.70
2019-01-30T15:33:59.238Z,11.70
2019-01-30T15:36:27.820Z,11.70
2019-01-30T15:38:56.676Z,11.60
2019-01-30T15:41:25.508Z,11.70
2019-01-30T15:43:54.100Z,11.60
2019-01-30T15:46:22.940Z,11.60
2019-01-30T15:48:51.527Z,11.60
2019-01-30T15:51:20.079Z,11.60
2019-01-30T15:53:49.190Z,11.60
2019-01-30T15:56:17.756Z,11.60
2019-01-30T15:58:46.324Z,11.60
2019-01-30T16:01:41.931Z,11.50
2019-01-30T16:04:10.539Z,11.50
2019-01-30T16:06:39.153Z,11.40
2019-01-30T16:09:08.827Z,11.50
2019-01-30T16:11:37.407Z,11.30
2019-01-30T16:14:06.025Z,11.40
2019-01-30T16:16:34.623Z,11.40
2019-01-30T16:19:03.195Z,11.30
2019-01-30T16:21:31.772Z,11.40
2019-01-30T16:24:00.653Z,11.30
2019-01-30T16:26:29.452Z,11.30
2019-01-30T16:28:58.103Z,11.20
2019-01-30T16:31:26.709Z,11.20
2019-01-30T16:33:55.277Z,11.20
2019-01-30T16:36:25.229Z,11.20
2019-01-30T16:38:53.884Z,11.20
2019-01-30T16:41:22.483Z,11.20
2019-01-30T16:43:51.057Z,11.20
2019-01-30T16:46:19.632Z,11.20
2019-01-30T16:48:48.239Z,11.20
2019-01-30T16:51:16.795Z,11.20
2019-01-30T16:53:45.355Z,11.10
2019-01-30T16:56:13.976Z,11.00
2019-01-30T16:58:42.575Z,11.00
2019-01-30T17:01:11.231Z,11.10
2019-01-30T17:03:39.804Z,11.10
2019-01-30T17:06:08.394Z,11.00
2019-01-30T17:08:36.956Z,11.10
2019-01-30T17:11:05.566Z,11.00
2019-01-30T17:13:34.158Z,11.00
2019-01-30T17:16:02.839Z,11.00
2019-01-30T17:18:31.411Z,10.90
2019-01-30T17:21:00.240Z,10.90
2019-01-30T17:23:29.162Z,11.00
2019-01-30T17:25:57.791Z,11.00
2019-01-30T17:28:26.394Z,11.00
2019-01-30T17:30:58.947Z,11.00
2019-01-30T17:33:27.720Z,10.90
2019-01-30T17:35:56.314Z,11.00
2019-01-30T17:38:25.352Z,10.90
2019-01-30T17:40:53.966Z,10.90
2019-01-30T17:43:22.552Z,10.90
2019-01-30T17:45:51.184Z,10.90
2019-01-30T17:48:19.773Z,10.80
2019-01-30T17:50:48.328Z,10.80
2019-01-30T17:53:16.921Z,10.90
2019-01-30T17:55:45.565Z,10.80
2019-01-30T17:58:14.480Z,10.80
2019-01-30T18:00:47.238Z,10.80
2019-01-30T18:03:15.820Z,10.80
2019-01-30T18:05:44.403Z,10.70
2019-01-30T18:08:13.017Z,10.70
2019-01-30T18:10:41.574Z,10.70
2019-01-30T18:13:10.167Z,10.70
2019-01-30T18:15:38.758Z,10.70
2019-01-30T18:18:07.363Z,10.70
2019-01-30T18:20:35.951Z,10.70
2019-01-30T18:23:04.578Z,10.70
2019-01-30T18:25:33.172Z,10.70
2019-01-30T18:28:01.756Z,10.70
2019-01-30T18:30:30.343Z,10.70
2019-01-30T18:32:59.195Z,10.70
2019-01-30T18:35:27.781Z,10.70
2019-01-30T18:37:56.329Z,10.60
2019-01-30T18:40:25.187Z,10.60
2019-01-30T18:42:53.773Z,10.60
2019-01-30T18:45:23.775Z,10.60
2019-01-30T18:47:52.358Z,10.60
2019-01-30T18:50:22.972Z,10.60
2019-01-30T18:52:51.590Z,10.60
2019-01-30T18:55:20.172Z,10.60
2019-01-30T18:57:49.315Z,10.70
2019-01-30T19:00:29.199Z,10.60
2019-01-30T19:02:59.374Z,10.60
2019-01-30T19:05:28.532Z,10.60
2019-01-30T19:07:57.123Z,10.60
2019-01-30T19:10:25.712Z,10.60
2019-01-30T19:12:54.386Z,10.60
2019-01-30T19:15:24.566Z,10.60
2019-01-30T19:17:53.145Z,10.50
2019-01-30T19:20:24.081Z,10.50
2019-01-30T19:22:52.691Z,10.60
2019-01-30T19:25:21.515Z,10.60
2019-01-30T19:27:50.395Z,10.60
2019-01-30T19:30:21.431Z,10.50
2019-01-30T19:32:50.101Z,10.50
2019-01-30T19:35:18.968Z,10.60
2019-01-30T19:37:47.798Z,10.60
2019-01-30T19:40:16.388Z,10.50
2019-01-30T19:42:45.223Z,10.50
2019-01-30T19:45:15.402Z,10.50
2019-01-30T19:47:44.219Z,10.50
2019-01-30T19:50:17.859Z,10.50
2019-01-30T19:52:46.455Z,10.50
2019-01-30T19:55:15.020Z,10.50
2019-01-30T19:57:43.644Z,10.50
2019-01-30T20:00:15.810Z,10.50
2019-01-30T20:02:44.367Z,10.50
2019-01-30T20:05:13.167Z,10.50
2019-01-30T20:07:42.211Z,10.50
2019-01-30T20:10:13.690Z,10.50
2019-01-30T20:12:42.258Z,10.40
2019-01-30T20:15:10.883Z,10.50
2019-01-30T20:17:39.487Z,10.50
2019-01-30T20:20:09.363Z,10.50
2019-01-30T20:22:37.955Z,10.50
2019-01-30T20:25:09.399Z,10.40
2019-01-30T20:27:37.990Z,10.40
2019-01-30T20:30:08.153Z,10.40
2019-01-30T20:32:36.981Z,10.40
2019-01-30T20:35:06.175Z,10.40
2019-01-30T20:37:37.596Z,10.50
2019-01-30T20:40:06.928Z,10.50
2019-01-30T20:42:35.560Z,10.40
2019-01-30T20:45:04.597Z,10.40
2019-01-30T20:47:33.184Z,10.40
2019-01-30T20:50:02.294Z,10.40
2019-01-30T20:52:31.145Z,10.40
2019-01-30T20:55:00.338Z,10.40
2019-01-30T20:57:29.137Z,10.50
2019-01-30T20:59:57.968Z,10.40
2019-01-30T21:02:26.570Z,10.40
2019-01-30T21:04:55.383Z,10.40
2019-01-30T21:07:23.967Z,10.40
2019-01-30T21:09:52.836Z,10.40
2019-01-30T21:12:21.641Z,10.40
2019-01-30T21:14:50.264Z,10.30
2019-01-30T21:17:18.887Z,10.40
2019-01-30T21:19:47.737Z,10.30
2019-01-30T21:22:16.303Z,10.30
2019-01-30T21:24:44.912Z,10.30
2019-01-30T21:27:13.714Z,10.30
2019-01-30T21:29:42.300Z,10.30
2019-01-30T21:32:10.905Z,10.30
2019-01-30T21:34:39.780Z,10.40
2019-01-30T21:37:08.673Z,10.40
2019-01-30T21:39:37.527Z,10.30
2019-01-30T21:42:06.093Z,10.30
2019-01-30T21:44:34.948Z,10.30
2019-01-30T21:47:03.787Z,10.40
2019-01-30T21:49:32.347Z,10.30
2019-01-30T21:52:00.940Z,10.30
2019-01-30T21:54:29.506Z,10.30
2019-01-30T21:56:58.203Z,10.30
2019-01-30T21:59:27.059Z,10.30
2019-01-30T22:01:55.747Z,10.30
2019-01-30T22:04:24.430Z,10.30
2019-01-30T22:06:53.027Z,10.30
2019-01-30T22:09:21.601Z,10.30
2019-01-30T22:11:50.202Z,10.30
2019-01-30T22:14:18.796Z,10.30
2019-01-30T22:16:47.379Z,10.30
2019-01-30T22:19:15.975Z,10.30
2019-01-30T22:21:44.799Z,10.20
2019-01-30T22:24:13.412Z,10.30
2019-01-30T22:26:42.024Z,10.20
2019-01-30T22:29:10.593Z,10.20
2019-01-30T22:31:39.201Z,10.20
2019-01-30T22:34:07.878Z,10.30
2019-01-30T22:36:36.460Z,10.20
2019-01-30T22:39:07.526Z,10.20
2019-01-30T22:41:36.378Z,10.20
2019-01-30T22:44:05.079Z,10.20
2019-01-30T22:46:33.663Z,10.20
2019-01-30T22:49:02.219Z,10.20
2019-01-30T22:51:30.839Z,10.20
2019-01-30T22:53:59.400Z,10.20
2019-01-30T22:56:28.023Z,10.20
2019-01-30T22:58:56.586Z,10.20
2019-01-30T23:01:36.517Z,10.20
2019-01-30T23:04:43.757Z,10.20
2019-01-30T23:07:32.942Z,10.20
2019-01-30T23:10:48.787Z,10.20
2019-01-30T23:13:43.480Z,10.20
2019-01-30T23:17:02.793Z,10.10
2019-01-30T23:19:44.812Z,10.10
2019-01-30T23:22:40.056Z,10.10
2019-01-30T23:25:35.453Z,10.10
2019-01-30T23:28:33.886Z,10.10
2019-01-30T23:31:34.454Z,10.00
2019-01-30T23:34:32.567Z,10.00
2019-01-30T23:37:24.906Z,10.00
2019-01-30T23:40:26.094Z,10.00
2019-01-30T23:43:30.660Z,10.00
2019-01-30T23:46:26.383Z,9.90
2019-01-30T23:49:20.542Z,10.00
2019-01-30T23:52:33.283Z,10.00
2019-01-30T23:55:55.019Z,10.00
2019-01-30T23:58:58.867Z,10.00
